sensor_id;sensor_type;location;lat;lon;timestamp;P1;durP1;ratioP1;P2;durP2;ratioP2
21202;SDS011;10759;51.982;9.232;2023-03-01T00:01:45;17.83;;;16.13;;
21202;SDS011;10759;51.982;9.232;2023-03-01T00:04:13;18.67;;;16.63;;
21202;SDS011;10759;51.982;9.232;2023-03-01T00:06:41;18.38;;;16.23;;
21202;SDS011;10759;51.982;9.232;2023-03-01T00:09:12;18.55;;;16.63;;
21202;SDS011;10759;51.982;9.232;2023-03-01T00:11:40;18.95;;;15.75;;
21202;SDS011;10759;51.982;9.232;2023-03-01T00:14:09;17.80;;;16.00;;
21202;SDS011;10759;51.982;9.232;2023-03-01T00:16:40;17.88;;;16.05;;
21202;SDS011;10759;51.982;9.232;2023-03-01T00:19:11;17.80;;;14.93;;
21202;SDS011;10759;51.982;9.232;2023-03-01T00:21:40;16.40;;;14.15;;
21202;SDS011;10759;51.982;9.232;2023-03-01T00:24:08;15.50;;;13.63;;
21202;SDS011;10759;51.982;9.232;2023-03-01T00:26:37;14.95;;;13.48;;
21202;SDS011;10759;51.982;9.232;2023-03-01T00:29:05;14.55;;;13.05;;
21202;SDS011;10759;51.982;9.232;2023-03-01T00:31:33;14.43;;;13.10;;
21202;SDS011;10759;51.982;9.232;2023-03-01T00:34:04;13.48;;;12.13;;
21202;SDS011;10759;51.982;9.232;2023-03-01T00:36:33;13.32;;;12.02;;
21202;SDS011;10759;51.982;9.232;2023-03-01T00:39:02;13.88;;;12.48;;
21202;SDS011;10759;51.982;9.232;2023-03-01T00:41:31;12.95;;;11.75;;
21202;SDS011;10759;51.982;9.232;2023-03-01T00:44:01;12.43;;;11.32;;
21202;SDS011;10759;51.982;9.232;2023-03-01T00:46:28;12.52;;;11.32;;
21202;SDS011;10759;51.982;9.232;2023-03-01T00:48:58;12.52;;;11.38;;
21202;SDS011;10759;51.982;9.232;2023-03-01T00:51:30;11.15;;;10.15;;
21202;SDS011;10759;51.982;9.232;2023-03-01T00:53:59;11.45;;;10.45;;
21202;SDS011;10759;51.982;9.232;2023-03-01T00:56:29;10.98;;;9.88;;
21202;SDS011;10759;51.982;9.232;2023-03-01T00:58:58;12.60;;;10.15;;
21202;SDS011;10759;51.982;9.232;2023-03-01T01:01:27;11.60;;;10.52;;
21202;SDS011;10759;51.982;9.232;2023-03-01T01:03:57;11.90;;;10.68;;
21202;SDS011;10759;51.982;9.232;2023-03-01T01:06:27;11.18;;;10.18;;
21202;SDS011;10759;51.982;9.232;2023-03-01T01:08:59;10.90;;;9.90;;
21202;SDS011;10759;51.982;9.232;2023-03-01T01:11:28;11.43;;;10.30;;
21202;SDS011;10759;51.982;9.232;2023-03-01T01:16:26;12.68;;;11.35;;
21202;SDS011;10759;51.982;9.232;2023-03-01T01:21:23;11.95;;;10.75;;
21202;SDS011;10759;51.982;9.232;2023-03-01T01:23:53;11.82;;;10.73;;
21202;SDS011;10759;51.982;9.232;2023-03-01T01:26:23;11.27;;;10.27;;
21202;SDS011;10759;51.982;9.232;2023-03-01T01:28:52;10.93;;;10.00;;
21202;SDS011;10759;51.982;9.232;2023-03-01T01:31:21;11.00;;;10.10;;
21202;SDS011;10759;51.982;9.232;2023-03-01T01:33:50;13.60;;;10.23;;
21202;SDS011;10759;51.982;9.232;2023-03-01T01:36:19;12.02;;;10.93;;
21202;SDS011;10759;51.982;9.232;2023-03-01T01:38:47;12.23;;;11.00;;
21202;SDS011;10759;51.982;9.232;2023-03-01T01:41:15;12.48;;;11.38;;
21202;SDS011;10759;51.982;9.232;2023-03-01T01:43:45;12.85;;;11.70;;
21202;SDS011;10759;51.982;9.232;2023-03-01T01:46:16;14.13;;;12.68;;
21202;SDS011;10759;51.982;9.232;2023-03-01T01:48:52;14.13;;;12.82;;
21202;SDS011;10759;51.982;9.232;2023-03-01T01:51:23;14.00;;;12.70;;
21202;SDS011;10759;51.982;9.232;2023-03-01T01:53:56;14.40;;;13.00;;
21202;SDS011;10759;51.982;9.232;2023-03-01T01:56:28;12.32;;;11.30;;
21202;SDS011;10759;51.982;9.232;2023-03-01T01:58:58;13.95;;;12.65;;
21202;SDS011;10759;51.982;9.232;2023-03-01T02:01:26;14.18;;;12.80;;
21202;SDS011;10759;51.982;9.232;2023-03-01T02:03:54;14.93;;;13.52;;
21202;SDS011;10759;51.982;9.232;2023-03-01T02:06:25;14.02;;;12.75;;
21202;SDS011;10759;51.982;9.232;2023-03-01T02:08:57;14.15;;;12.75;;
21202;SDS011;10759;51.982;9.232;2023-03-01T02:11:29;12.98;;;11.77;;
21202;SDS011;10759;51.982;9.232;2023-03-01T02:14:00;13.90;;;12.50;;
21202;SDS011;10759;51.982;9.232;2023-03-01T02:16:27;13.75;;;12.02;;
21202;SDS011;10759;51.982;9.232;2023-03-01T02:21:35;13.23;;;12.02;;
21202;SDS011;10759;51.982;9.232;2023-03-01T02:24:12;13.77;;;12.32;;
21202;SDS011;10759;51.982;9.232;2023-03-01T02:26:53;11.40;;;10.30;;
21202;SDS011;10759;51.982;9.232;2023-03-01T02:29:25;13.55;;;12.25;;
21202;SDS011;10759;51.982;9.232;2023-03-01T02:31:54;12.07;;;10.88;;
21202;SDS011;10759;51.982;9.232;2023-03-01T02:34:25;12.65;;;11.55;;
21202;SDS011;10759;51.982;9.232;2023-03-01T02:36:56;13.07;;;11.43;;
21202;SDS011;10759;51.982;9.232;2023-03-01T02:39:28;13.13;;;10.90;;
21202;SDS011;10759;51.982;9.232;2023-03-01T02:42:00;12.05;;;10.85;;
21202;SDS011;10759;51.982;9.232;2023-03-01T02:44:32;12.57;;;11.48;;
21202;SDS011;10759;51.982;9.232;2023-03-01T02:47:01;11.27;;;9.88;;
21202;SDS011;10759;51.982;9.232;2023-03-01T02:49:31;12.30;;;11.10;;
21202;SDS011;10759;51.982;9.232;2023-03-01T02:52:06;11.50;;;10.40;;
21202;SDS011;10759;51.982;9.232;2023-03-01T02:54:44;12.70;;;11.50;;
21202;SDS011;10759;51.982;9.232;2023-03-01T02:57:17;11.27;;;10.18;;
21202;SDS011;10759;51.982;9.232;2023-03-01T02:59:48;13.35;;;11.20;;
21202;SDS011;10759;51.982;9.232;2023-03-01T03:02:19;12.18;;;11.07;;
21202;SDS011;10759;51.982;9.232;2023-03-01T03:05:07;11.68;;;10.57;;
21202;SDS011;10759;51.982;9.232;2023-03-01T03:07:38;12.98;;;11.88;;
21202;SDS011;10759;51.982;9.232;2023-03-01T03:10:07;12.48;;;11.25;;
21202;SDS011;10759;51.982;9.232;2023-03-01T03:12:38;13.10;;;11.80;;
21202;SDS011;10759;51.982;9.232;2023-03-01T03:15:09;12.07;;;10.88;;
21202;SDS011;10759;51.982;9.232;2023-03-01T03:17:39;13.05;;;11.48;;
21202;SDS011;10759;51.982;9.232;2023-03-01T03:20:12;12.23;;;10.85;;
21202;SDS011;10759;51.982;9.232;2023-03-01T03:22:45;13.77;;;12.45;;
21202;SDS011;10759;51.982;9.232;2023-03-01T03:25:14;11.70;;;9.83;;
21202;SDS011;10759;51.982;9.232;2023-03-01T03:27:43;13.38;;;11.98;;
21202;SDS011;10759;51.982;9.232;2023-03-01T03:30:14;12.02;;;10.95;;
21202;SDS011;10759;51.982;9.232;2023-03-01T03:32:45;13.07;;;11.77;;
21202;SDS011;10759;51.982;9.232;2023-03-01T03:35:19;13.27;;;11.98;;
21202;SDS011;10759;51.982;9.232;2023-03-01T03:37:48;13.30;;;11.93;;
21202;SDS011;10759;51.982;9.232;2023-03-01T03:40:33;13.95;;;12.20;;
21202;SDS011;10759;51.982;9.232;2023-03-01T03:43:03;14.10;;;12.80;;
21202;SDS011;10759;51.982;9.232;2023-03-01T03:45:34;13.63;;;12.43;;
21202;SDS011;10759;51.982;9.232;2023-03-01T03:48:03;14.52;;;12.85;;
21202;SDS011;10759;51.982;9.232;2023-03-01T03:50:33;14.57;;;13.20;;
21202;SDS011;10759;51.982;9.232;2023-03-01T03:53:01;13.75;;;12.35;;
21202;SDS011;10759;51.982;9.232;2023-03-01T03:55:30;13.80;;;12.43;;
21202;SDS011;10759;51.982;9.232;2023-03-01T03:58:00;14.43;;;12.93;;
21202;SDS011;10759;51.982;9.232;2023-03-01T04:00:35;14.35;;;13.05;;
21202;SDS011;10759;51.982;9.232;2023-03-01T04:03:04;15.07;;;12.63;;
21202;SDS011;10759;51.982;9.232;2023-03-01T04:05:33;14.50;;;13.10;;
21202;SDS011;10759;51.982;9.232;2023-03-01T04:08:00;14.82;;;13.40;;
21202;SDS011;10759;51.982;9.232;2023-03-01T04:10:29;13.88;;;12.68;;
21202;SDS011;10759;51.982;9.232;2023-03-01T04:12:58;14.43;;;13.02;;
21202;SDS011;10759;51.982;9.232;2023-03-01T04:15:26;13.55;;;12.27;;
21202;SDS011;10759;51.982;9.232;2023-03-01T04:17:56;13.18;;;11.80;;
21202;SDS011;10759;51.982;9.232;2023-03-01T04:20:27;13.40;;;12.15;;
21202;SDS011;10759;51.982;9.232;2023-03-01T04:22:57;13.85;;;12.55;;
21202;SDS011;10759;51.982;9.232;2023-03-01T04:25:26;17.90;;;12.95;;
21202;SDS011;10759;51.982;9.232;2023-03-01T04:27:56;13.40;;;12.20;;
21202;SDS011;10759;51.982;9.232;2023-03-01T04:30:24;13.50;;;12.32;;
21202;SDS011;10759;51.982;9.232;2023-03-01T04:32:52;13.43;;;12.13;;
21202;SDS011;10759;51.982;9.232;2023-03-01T04:35:21;14.52;;;13.30;;
21202;SDS011;10759;51.982;9.232;2023-03-01T04:37:50;16.90;;;13.75;;
21202;SDS011;10759;51.982;9.232;2023-03-01T04:40:17;14.27;;;12.73;;
21202;SDS011;10759;51.982;9.232;2023-03-01T04:42:47;18.27;;;15.02;;
21202;SDS011;10759;51.982;9.232;2023-03-01T04:45:15;15.80;;;14.30;;
21202;SDS011;10759;51.982;9.232;2023-03-01T04:47:43;15.57;;;14.18;;
21202;SDS011;10759;51.982;9.232;2023-03-01T04:50:13;16.92;;;15.23;;
21202;SDS011;10759;51.982;9.232;2023-03-01T04:55:12;16.87;;;15.17;;
21202;SDS011;10759;51.982;9.232;2023-03-01T04:57:40;16.25;;;14.52;;
21202;SDS011;10759;51.982;9.232;2023-03-01T05:00:10;17.88;;;15.98;;
21202;SDS011;10759;51.982;9.232;2023-03-01T05:02:48;17.90;;;15.18;;
21202;SDS011;10759;51.982;9.232;2023-03-01T05:05:23;16.55;;;14.73;;
21202;SDS011;10759;51.982;9.232;2023-03-01T05:07:55;16.60;;;14.88;;
21202;SDS011;10759;51.982;9.232;2023-03-01T05:10:26;16.73;;;14.95;;
21202;SDS011;10759;51.982;9.232;2023-03-01T05:12:56;16.15;;;14.75;;
21202;SDS011;10759;51.982;9.232;2023-03-01T05:15:25;15.30;;;13.85;;
21202;SDS011;10759;51.982;9.232;2023-03-01T05:17:54;16.48;;;14.77;;
21202;SDS011;10759;51.982;9.232;2023-03-01T05:20:26;17.55;;;15.05;;
21202;SDS011;10759;51.982;9.232;2023-03-01T05:22:56;16.23;;;14.65;;
21202;SDS011;10759;51.982;9.232;2023-03-01T05:25:26;19.30;;;15.82;;
21202;SDS011;10759;51.982;9.232;2023-03-01T05:27:59;15.52;;;13.93;;
21202;SDS011;10759;51.982;9.232;2023-03-01T05:30:30;17.08;;;15.25;;
21202;SDS011;10759;51.982;9.232;2023-03-01T05:32:59;16.50;;;14.68;;
21202;SDS011;10759;51.982;9.232;2023-03-01T05:35:27;18.40;;;16.02;;
21202;SDS011;10759;51.982;9.232;2023-03-01T05:38:00;19.83;;;15.48;;
21202;SDS011;10759;51.982;9.232;2023-03-01T05:40:28;19.73;;;17.67;;
21202;SDS011;10759;51.982;9.232;2023-03-01T05:42:56;19.33;;;17.40;;
21202;SDS011;10759;51.982;9.232;2023-03-01T05:45:25;17.15;;;15.48;;
21202;SDS011;10759;51.982;9.232;2023-03-01T05:47:54;22.65;;;19.55;;
21202;SDS011;10759;51.982;9.232;2023-03-01T05:50:22;19.42;;;17.35;;
21202;SDS011;10759;51.982;9.232;2023-03-01T05:52:56;19.90;;;15.20;;
21202;SDS011;10759;51.982;9.232;2023-03-01T05:55:28;16.83;;;15.23;;
21202;SDS011;10759;51.982;9.232;2023-03-01T05:57:58;16.80;;;15.18;;
21202;SDS011;10759;51.982;9.232;2023-03-01T06:00:27;16.80;;;14.82;;
21202;SDS011;10759;51.982;9.232;2023-03-01T06:02:56;15.98;;;14.18;;
21202;SDS011;10759;51.982;9.232;2023-03-01T06:05:26;19.67;;;15.05;;
21202;SDS011;10759;51.982;9.232;2023-03-01T06:07:55;17.43;;;14.00;;
21202;SDS011;10759;51.982;9.232;2023-03-01T06:10:27;17.70;;;15.82;;
21202;SDS011;10759;51.982;9.232;2023-03-01T06:12:56;18.45;;;15.38;;
21202;SDS011;10759;51.982;9.232;2023-03-01T06:15:25;16.88;;;15.15;;
21202;SDS011;10759;51.982;9.232;2023-03-01T06:17:53;15.10;;;13.57;;
21202;SDS011;10759;51.982;9.232;2023-03-01T06:20:26;30.95;;;24.75;;
21202;SDS011;10759;51.982;9.232;2023-03-01T06:25:24;17.58;;;15.68;;
21202;SDS011;10759;51.982;9.232;2023-03-01T06:30:23;18.20;;;15.27;;
21202;SDS011;10759;51.982;9.232;2023-03-01T06:32:52;17.65;;;15.75;;
21202;SDS011;10759;51.982;9.232;2023-03-01T06:35:27;17.65;;;15.93;;
21202;SDS011;10759;51.982;9.232;2023-03-01T06:37:57;17.85;;;15.85;;
21202;SDS011;10759;51.982;9.232;2023-03-01T06:40:26;17.88;;;16.02;;
21202;SDS011;10759;51.982;9.232;2023-03-01T06:42:56;18.33;;;16.42;;
21202;SDS011;10759;51.982;9.232;2023-03-01T06:45:27;17.45;;;15.75;;
21202;SDS011;10759;51.982;9.232;2023-03-01T06:48:01;20.73;;;17.98;;
21202;SDS011;10759;51.982;9.232;2023-03-01T06:50:30;23.17;;;20.83;;
21202;SDS011;10759;51.982;9.232;2023-03-01T06:52:58;27.77;;;22.48;;
21202;SDS011;10759;51.982;9.232;2023-03-01T06:55:26;23.88;;;21.60;;
21202;SDS011;10759;51.982;9.232;2023-03-01T06:57:54;23.35;;;20.25;;
21202;SDS011;10759;51.982;9.232;2023-03-01T07:00:25;24.35;;;19.15;;
21202;SDS011;10759;51.982;9.232;2023-03-01T07:02:54;19.50;;;17.60;;
21202;SDS011;10759;51.982;9.232;2023-03-01T07:05:25;20.13;;;16.73;;
21202;SDS011;10759;51.982;9.232;2023-03-01T07:07:53;19.17;;;17.27;;
21202;SDS011;10759;51.982;9.232;2023-03-01T07:10:22;30.08;;;25.77;;
21202;SDS011;10759;51.982;9.232;2023-03-01T07:12:50;26.83;;;23.17;;
21202;SDS011;10759;51.982;9.232;2023-03-01T07:15:22;23.05;;;20.75;;
21202;SDS011;10759;51.982;9.232;2023-03-01T07:17:51;25.80;;;23.23;;
21202;SDS011;10759;51.982;9.232;2023-03-01T07:20:19;19.65;;;17.38;;
21202;SDS011;10759;51.982;9.232;2023-03-01T07:22:50;22.23;;;19.80;;
21202;SDS011;10759;51.982;9.232;2023-03-01T07:25:18;24.35;;;21.75;;
21202;SDS011;10759;51.982;9.232;2023-03-01T07:27:48;24.00;;;21.33;;
21202;SDS011;10759;51.982;9.232;2023-03-01T07:30:17;24.27;;;21.88;;
21202;SDS011;10759;51.982;9.232;2023-03-01T07:32:46;25.98;;;21.35;;
21202;SDS011;10759;51.982;9.232;2023-03-01T07:35:15;25.15;;;22.48;;
21202;SDS011;10759;51.982;9.232;2023-03-01T07:37:43;22.23;;;20.05;;
21202;SDS011;10759;51.982;9.232;2023-03-01T07:40:12;25.67;;;23.08;;
21202;SDS011;10759;51.982;9.232;2023-03-01T07:42:40;31.55;;;27.58;;
21202;SDS011;10759;51.982;9.232;2023-03-01T07:45:08;35.03;;;27.52;;
21202;SDS011;10759;51.982;9.232;2023-03-01T07:47:37;33.47;;;26.38;;
21202;SDS011;10759;51.982;9.232;2023-03-01T07:50:05;29.05;;;24.08;;
21202;SDS011;10759;51.982;9.232;2023-03-01T07:52:34;29.45;;;26.33;;
21202;SDS011;10759;51.982;9.232;2023-03-01T07:55:03;28.55;;;25.73;;
21202;SDS011;10759;51.982;9.232;2023-03-01T07:57:31;31.95;;;27.98;;
21202;SDS011;10759;51.982;9.232;2023-03-01T07:59:59;32.15;;;28.90;;
21202;SDS011;10759;51.982;9.232;2023-03-01T08:02:37;30.00;;;26.63;;
21202;SDS011;10759;51.982;9.232;2023-03-01T08:05:07;32.45;;;29.05;;
21202;SDS011;10759;51.982;9.232;2023-03-01T08:07:36;30.88;;;27.60;;
21202;SDS011;10759;51.982;9.232;2023-03-01T08:10:04;30.20;;;27.07;;
21202;SDS011;10759;51.982;9.232;2023-03-01T08:12:33;28.73;;;25.60;;
21202;SDS011;10759;51.982;9.232;2023-03-01T08:15:01;30.60;;;27.42;;
21202;SDS011;10759;51.982;9.232;2023-03-01T08:17:29;26.38;;;23.33;;
21202;SDS011;10759;51.982;9.232;2023-03-01T08:19:56;27.92;;;24.48;;
21202;SDS011;10759;51.982;9.232;2023-03-01T08:22:24;27.65;;;24.67;;
21202;SDS011;10759;51.982;9.232;2023-03-01T08:24:55;31.05;;;26.90;;
21202;SDS011;10759;51.982;9.232;2023-03-01T08:27:24;27.23;;;24.48;;
21202;SDS011;10759;51.982;9.232;2023-03-01T08:29:52;25.00;;;22.42;;
21202;SDS011;10759;51.982;9.232;2023-03-01T08:32:19;21.77;;;19.77;;
21202;SDS011;10759;51.982;9.232;2023-03-01T08:34:47;21.48;;;18.67;;
21202;SDS011;10759;51.982;9.232;2023-03-01T08:37:15;20.63;;;18.65;;
21202;SDS011;10759;51.982;9.232;2023-03-01T08:39:43;19.60;;;17.55;;
21202;SDS011;10759;51.982;9.232;2023-03-01T08:42:13;19.98;;;17.77;;
21202;SDS011;10759;51.982;9.232;2023-03-01T08:44:41;19.77;;;17.70;;
21202;SDS011;10759;51.982;9.232;2023-03-01T08:47:11;18.92;;;16.92;;
21202;SDS011;10759;51.982;9.232;2023-03-01T08:49:39;19.95;;;16.95;;
21202;SDS011;10759;51.982;9.232;2023-03-01T08:52:07;18.08;;;16.30;;
21202;SDS011;10759;51.982;9.232;2023-03-01T08:54:34;17.77;;;15.98;;
21202;SDS011;10759;51.982;9.232;2023-03-01T08:57:02;19.27;;;16.17;;
21202;SDS011;10759;51.982;9.232;2023-03-01T08:59:32;17.63;;;15.75;;
21202;SDS011;10759;51.982;9.232;2023-03-01T09:02:03;16.90;;;15.38;;
21202;SDS011;10759;51.982;9.232;2023-03-01T09:04:32;16.73;;;14.98;;
21202;SDS011;10759;51.982;9.232;2023-03-01T09:07:00;18.65;;;16.95;;
21202;SDS011;10759;51.982;9.232;2023-03-01T09:09:28;15.30;;;13.90;;
21202;SDS011;10759;51.982;9.232;2023-03-01T09:11:55;14.80;;;13.50;;
21202;SDS011;10759;51.982;9.232;2023-03-01T09:14:23;15.35;;;13.88;;
21202;SDS011;10759;51.982;9.232;2023-03-01T09:16:52;15.23;;;13.90;;
21202;SDS011;10759;51.982;9.232;2023-03-01T09:19:20;15.20;;;13.80;;
21202;SDS011;10759;51.982;9.232;2023-03-01T09:21:52;15.73;;;14.25;;
21202;SDS011;10759;51.982;9.232;2023-03-01T09:24:21;14.73;;;13.23;;
21202;SDS011;10759;51.982;9.232;2023-03-01T09:26:52;13.82;;;12.23;;
21202;SDS011;10759;51.982;9.232;2023-03-01T09:29:22;15.45;;;13.98;;
21202;SDS011;10759;51.982;9.232;2023-03-01T09:31:50;13.15;;;11.85;;
21202;SDS011;10759;51.982;9.232;2023-03-01T09:34:22;13.57;;;12.32;;
21202;SDS011;10759;51.982;9.232;2023-03-01T09:36:50;14.07;;;12.60;;
21202;SDS011;10759;51.982;9.232;2023-03-01T09:39:18;12.68;;;11.55;;
21202;SDS011;10759;51.982;9.232;2023-03-01T09:41:48;13.60;;;11.80;;
21202;SDS011;10759;51.982;9.232;2023-03-01T09:44:24;13.35;;;11.98;;
21202;SDS011;10759;51.982;9.232;2023-03-01T09:46:57;12.60;;;11.35;;
21202;SDS011;10759;51.982;9.232;2023-03-01T09:49:28;11.15;;;10.15;;
21202;SDS011;10759;51.982;9.232;2023-03-01T09:51:59;10.02;;;8.98;;
21202;SDS011;10759;51.982;9.232;2023-03-01T09:54:31;11.23;;;10.00;;
21202;SDS011;10759;51.982;9.232;2023-03-01T09:59:53;15.02;;;11.60;;
21202;SDS011;10759;51.982;9.232;2023-03-01T10:02:33;9.45;;;8.48;;
21202;SDS011;10759;51.982;9.232;2023-03-01T10:05:12;8.95;;;8.02;;
21202;SDS011;10759;51.982;9.232;2023-03-01T10:07:54;10.13;;;9.02;;
21202;SDS011;10759;51.982;9.232;2023-03-01T10:10:32;10.25;;;9.15;;
21202;SDS011;10759;51.982;9.232;2023-03-01T10:13:02;9.70;;;8.80;;
21202;SDS011;10759;51.982;9.232;2023-03-01T10:15:39;9.70;;;8.18;;
21202;SDS011;10759;51.982;9.232;2023-03-01T10:18:12;9.10;;;7.40;;
21202;SDS011;10759;51.982;9.232;2023-03-01T10:20:46;9.27;;;8.35;;
21202;SDS011;10759;51.982;9.232;2023-03-01T10:23:19;7.90;;;7.10;;
21202;SDS011;10759;51.982;9.232;2023-03-01T10:25:50;8.57;;;7.68;;
21202;SDS011;10759;51.982;9.232;2023-03-01T10:28:31;16.60;;;13.85;;
21202;SDS011;10759;51.982;9.232;2023-03-01T10:31:11;10.00;;;9.00;;
21202;SDS011;10759;51.982;9.232;2023-03-01T10:33:41;8.60;;;7.72;;
21202;SDS011;10759;51.982;9.232;2023-03-01T10:36:10;8.43;;;7.63;;
21202;SDS011;10759;51.982;9.232;2023-03-01T10:38:48;8.90;;;8.00;;
21202;SDS011;10759;51.982;9.232;2023-03-01T10:41:18;7.95;;;7.15;;
21202;SDS011;10759;51.982;9.232;2023-03-01T10:43:47;7.30;;;6.70;;
21202;SDS011;10759;51.982;9.232;2023-03-01T10:46:25;19.88;;;13.30;;
21202;SDS011;10759;51.982;9.232;2023-03-01T10:49:08;8.70;;;7.40;;
21202;SDS011;10759;51.982;9.232;2023-03-01T10:51:43;8.43;;;7.60;;
21202;SDS011;10759;51.982;9.232;2023-03-01T10:54:16;22.98;;;16.20;;
21202;SDS011;10759;51.982;9.232;2023-03-01T10:56:46;16.35;;;12.18;;
21202;SDS011;10759;51.982;9.232;2023-03-01T10:59:22;24.70;;;16.88;;
21202;SDS011;10759;51.982;9.232;2023-03-01T11:02:01;13.55;;;11.30;;
21202;SDS011;10759;51.982;9.232;2023-03-01T11:04:57;12.93;;;9.60;;
21202;SDS011;10759;51.982;9.232;2023-03-01T11:07:28;17.67;;;12.85;;
21202;SDS011;10759;51.982;9.232;2023-03-01T11:09:56;11.40;;;9.82;;
21202;SDS011;10759;51.982;9.232;2023-03-01T11:12:24;7.82;;;7.13;;
21202;SDS011;10759;51.982;9.232;2023-03-01T11:14:55;23.08;;;15.07;;
21202;SDS011;10759;51.982;9.232;2023-03-01T11:17:24;9.10;;;8.20;;
21202;SDS011;10759;51.982;9.232;2023-03-01T11:20:05;10.65;;;7.50;;
21202;SDS011;10759;51.982;9.232;2023-03-01T11:22:45;17.85;;;13.75;;
21202;SDS011;10759;51.982;9.232;2023-03-01T11:25:17;25.60;;;21.05;;
21202;SDS011;10759;51.982;9.232;2023-03-01T11:27:51;10.75;;;8.55;;
21202;SDS011;10759;51.982;9.232;2023-03-01T11:30:21;9.10;;;8.13;;
21202;SDS011;10759;51.982;9.232;2023-03-01T11:32:57;14.70;;;11.18;;
21202;SDS011;10759;51.982;9.232;2023-03-01T11:35:33;14.38;;;11.35;;
21202;SDS011;10759;51.982;9.232;2023-03-01T11:38:09;10.90;;;9.63;;
21202;SDS011;10759;51.982;9.232;2023-03-01T11:40:46;10.80;;;7.10;;
21202;SDS011;10759;51.982;9.232;2023-03-01T11:43:23;10.20;;;9.13;;
21202;SDS011;10759;51.982;9.232;2023-03-01T11:46:05;11.52;;;8.90;;
21202;SDS011;10759;51.982;9.232;2023-03-01T11:48:52;12.23;;;7.45;;
21202;SDS011;10759;51.982;9.232;2023-03-01T11:51:31;9.45;;;7.00;;
21202;SDS011;10759;51.982;9.232;2023-03-01T11:57:08;7.75;;;6.93;;
21202;SDS011;10759;51.982;9.232;2023-03-01T11:59:49;6.55;;;5.95;;
21202;SDS011;10759;51.982;9.232;2023-03-01T12:02:33;7.78;;;6.97;;
21202;SDS011;10759;51.982;9.232;2023-03-01T12:05:38;7.72;;;6.90;;
21202;SDS011;10759;51.982;9.232;2023-03-01T12:08:31;8.02;;;6.55;;
21202;SDS011;10759;51.982;9.232;2023-03-01T12:11:06;8.00;;;7.30;;
21202;SDS011;10759;51.982;9.232;2023-03-01T12:16:53;9.30;;;7.68;;
21202;SDS011;10759;51.982;9.232;2023-03-01T12:19:36;9.63;;;8.50;;
21202;SDS011;10759;51.982;9.232;2023-03-01T12:22:17;9.32;;;8.25;;
21202;SDS011;10759;51.982;9.232;2023-03-01T12:34:01;9.45;;;7.72;;
21202;SDS011;10759;51.982;9.232;2023-03-01T12:36:39;8.95;;;8.07;;
21202;SDS011;10759;51.982;9.232;2023-03-01T12:39:22;8.68;;;7.78;;
21202;SDS011;10759;51.982;9.232;2023-03-01T12:42:04;8.52;;;7.10;;
21202;SDS011;10759;51.982;9.232;2023-03-01T12:44:42;7.95;;;7.10;;
21202;SDS011;10759;51.982;9.232;2023-03-01T12:47:27;8.80;;;7.90;;
21202;SDS011;10759;51.982;9.232;2023-03-01T12:50:10;9.02;;;7.53;;
21202;SDS011;10759;51.982;9.232;2023-03-01T12:52:46;10.70;;;9.60;;
21202;SDS011;10759;51.982;9.232;2023-03-01T12:55:19;8.80;;;7.90;;
21202;SDS011;10759;51.982;9.232;2023-03-01T12:58:01;9.77;;;8.23;;
21202;SDS011;10759;51.982;9.232;2023-03-01T13:00:38;8.10;;;7.22;;
21202;SDS011;10759;51.982;9.232;2023-03-01T13:03:18;8.93;;;8.02;;
21202;SDS011;10759;51.982;9.232;2023-03-01T13:06:01;71.55;;;36.10;;
21202;SDS011;10759;51.982;9.232;2023-03-01T13:08:36;12.10;;;8.95;;
21202;SDS011;10759;51.982;9.232;2023-03-01T13:11:12;8.55;;;7.75;;
21202;SDS011;10759;51.982;9.232;2023-03-01T13:13:45;10.60;;;8.48;;
21202;SDS011;10759;51.982;9.232;2023-03-01T13:19:10;12.43;;;10.15;;
21202;SDS011;10759;51.982;9.232;2023-03-01T13:21:47;11.07;;;9.57;;
21202;SDS011;10759;51.982;9.232;2023-03-01T13:24:26;22.80;;;16.30;;
21202;SDS011;10759;51.982;9.232;2023-03-01T13:27:09;12.77;;;9.65;;
21202;SDS011;10759;51.982;9.232;2023-03-01T13:29:45;9.73;;;6.45;;
21202;SDS011;10759;51.982;9.232;2023-03-01T13:32:19;8.38;;;7.50;;
21202;SDS011;10759;51.982;9.232;2023-03-01T13:35:00;9.07;;;7.20;;
21202;SDS011;10759;51.982;9.232;2023-03-01T13:37:32;10.50;;;7.40;;
21202;SDS011;10759;51.982;9.232;2023-03-01T13:45:56;8.70;;;7.65;;
21202;SDS011;10759;51.982;9.232;2023-03-01T13:48:26;8.88;;;7.65;;
21202;SDS011;10759;51.982;9.232;2023-03-01T13:50:57;18.25;;;10.32;;
21202;SDS011;10759;51.982;9.232;2023-03-01T13:53:30;20.35;;;14.07;;
21202;SDS011;10759;51.982;9.232;2023-03-01T13:56:06;16.55;;;12.50;;
21202;SDS011;10759;51.982;9.232;2023-03-01T13:58:47;17.05;;;11.88;;
21202;SDS011;10759;51.982;9.232;2023-03-01T14:03:49;17.45;;;13.20;;
21202;SDS011;10759;51.982;9.232;2023-03-01T14:06:20;12.20;;;9.95;;
21202;SDS011;10759;51.982;9.232;2023-03-01T14:08:51;10.25;;;8.25;;
21202;SDS011;10759;51.982;9.232;2023-03-01T14:11:35;14.80;;;11.43;;
21202;SDS011;10759;51.982;9.232;2023-03-01T14:14:30;19.40;;;12.25;;
21202;SDS011;10759;51.982;9.232;2023-03-01T14:17:09;8.10;;;7.38;;
21202;SDS011;10759;51.982;9.232;2023-03-01T14:19:56;8.77;;;7.70;;
21202;SDS011;10759;51.982;9.232;2023-03-01T14:22:26;8.57;;;7.35;;
21202;SDS011;10759;51.982;9.232;2023-03-01T14:24:58;11.95;;;8.65;;
21202;SDS011;10759;51.982;9.232;2023-03-01T14:27:28;7.35;;;6.55;;
21202;SDS011;10759;51.982;9.232;2023-03-01T14:30:01;9.30;;;7.55;;
21202;SDS011;10759;51.982;9.232;2023-03-01T14:34:59;7.45;;;6.68;;
21202;SDS011;10759;51.982;9.232;2023-03-01T14:37:28;7.18;;;6.00;;
21202;SDS011;10759;51.982;9.232;2023-03-01T14:39:59;6.43;;;5.82;;
21202;SDS011;10759;51.982;9.232;2023-03-01T14:42:30;6.78;;;6.18;;
21202;SDS011;10759;51.982;9.232;2023-03-01T14:45:02;9.82;;;5.75;;
21202;SDS011;10759;51.982;9.232;2023-03-01T14:47:35;6.68;;;6.00;;
21202;SDS011;10759;51.982;9.232;2023-03-01T14:50:09;10.73;;;6.97;;
21202;SDS011;10759;51.982;9.232;2023-03-01T14:52:49;7.28;;;6.55;;
21202;SDS011;10759;51.982;9.232;2023-03-01T14:55:21;7.97;;;6.00;;
21202;SDS011;10759;51.982;9.232;2023-03-01T14:57:54;6.30;;;5.70;;
21202;SDS011;10759;51.982;9.232;2023-03-01T15:00:24;7.10;;;5.45;;
21202;SDS011;10759;51.982;9.232;2023-03-01T15:02:54;9.57;;;5.90;;
21202;SDS011;10759;51.982;9.232;2023-03-01T15:05:25;10.00;;;6.45;;
21202;SDS011;10759;51.982;9.232;2023-03-01T15:07:56;6.65;;;5.55;;
21202;SDS011;10759;51.982;9.232;2023-03-01T15:10:27;7.38;;;6.07;;
21202;SDS011;10759;51.982;9.232;2023-03-01T15:12:58;10.02;;;7.50;;
21202;SDS011;10759;51.982;9.232;2023-03-01T15:15:38;6.50;;;5.05;;
21202;SDS011;10759;51.982;9.232;2023-03-01T15:18:17;6.82;;;5.40;;
21202;SDS011;10759;51.982;9.232;2023-03-01T15:20:47;10.43;;;5.60;;
21202;SDS011;10759;51.982;9.232;2023-03-01T15:23:20;7.50;;;6.70;;
21202;SDS011;10759;51.982;9.232;2023-03-01T15:25:52;7.13;;;5.50;;
21202;SDS011;10759;51.982;9.232;2023-03-01T15:28:24;7.15;;;6.07;;
21202;SDS011;10759;51.982;9.232;2023-03-01T15:30:55;11.23;;;6.43;;
21202;SDS011;10759;51.982;9.232;2023-03-01T15:33:28;8.05;;;6.78;;
21202;SDS011;10759;51.982;9.232;2023-03-01T15:35:59;20.48;;;14.10;;
21202;SDS011;10759;51.982;9.232;2023-03-01T15:38:30;8.00;;;7.20;;
21202;SDS011;10759;51.982;9.232;2023-03-01T15:41:02;19.52;;;13.38;;
21202;SDS011;10759;51.982;9.232;2023-03-01T15:43:40;26.70;;;15.85;;